Arvada, CO

5:19 AM MDT on October 24, 2014 (GMT -0600)
Glen Ellen | Change Station
CLOSE
Current Station
Personal Weather Station
Location: Arvada, CO
Elevation: 1638 m
Nearby Weather Stations

Elev 1638 m 39.80 °N, 105.09 °W | Updated 9 minutes ago

Clear
Clear
11.0 °C
Feels Like 11.0 °C
N
0.0
Wind Variable Wind from North
Gusts 0.0 km/h

Today
High -- | Low -- °C
--% Chance of Precip.
Yesterday
High -- | Low -- °C
Precip. -- mm
7:20 AM 6:08 PM
New Moon, 0% visible
Pressure 1021 hPa
Visibility 16.1 kilometers
Clouds Clear
Dew Point 0 °C
Humidity 48%
Rainfall 0 mm
Snow Depth Not available.
UV 0 out of 12
Pollen 3.20 out of 12
Air Quality Not available.
Flu Activity Sporadic
METAR KBJC 241115Z AUTO 23005KT 10SM CLR 15/M05 A3016 RMK AO2

More Conditions Fewer Conditions

Pressure 1021 hPa
Visibility 16.1 kilometers
Clouds Clear
Dew Point 0 °C
Humidity 48%
Rainfall 0 mm
Snow Depth Not available.
UV 0 out of 12
Pollen 3.20 out of 12
Air Quality Not available.
Flu Activity Sporadic
METAR KBJC 241115Z AUTO 23005KT 10SM CLR 15/M05 A3016 RMK AO2

More Conditions Fewer Conditions

Nowcast | as of 4:47 am MDT on October 24, 2014

Gusty west winds of 10 to 20 mph with gusts up to 30 mph can be expected over the Front Range foothills and adjacent plains through the early morning hours.

×

10-Day Weather Forecast

Almanac

Astronomy

Oct. 24, 2014 Rise Set
Actual Time 7:20 AM MDT 6:08 PM MDT
Civil Twilight 6:52 AM MDT 6:35 PM MDT
Nautical Twilight 6:21 AM MDT 7:07 PM MDT
Astronomical Twilight 5:49 AM MDT 7:38 PM MDT
Moon 8:01 AM MDT 6:50 PM MDT
Length of Visible Light 11h 43m
Length of Day
10h 47m
Tomorrow will be 2m 24s shorter.
New Moon, 0% of the Moon is Illuminated
Today
New Moon
Oct 30
First Quarter
Nov 6
Full
Nov 14
Last Quarter
Nov 22
New

Today's Extremes

State Highs State Lows

Community

WunderPhotos

Upload Photos

1,764,518 photos uploaded!

WunderBlogs® & News

Nearby

Air Quality

  Air Quality AQ Index Pollutant
Yesterday Good
OZONE
Yesterday Good
PM10
Friday Good
OZONE
Friday Good
PM2.5

Snow Depth

Station Depth Elevation
Lake Eldora 0 in 9700 ft
Niwot 0 in 9910 ft
Echo Lake 0 in 10600 ft
University Camp 0 in 10300 ft
Berthoud Summit 1 in 11300 ft

Earthquake Activity

City Distance Mag. Time & Date
No recent earthquake activity has been reported nearby.
Minimum magnitude displayed is 2.5.

Coastal Water Temperatures

Place Temperature
No Stations Reporting

Nearby Weather Stations